createdAt,value
2023-02-23T00:01:42.463Z,97668.75
2023-02-23T00:04:12.559Z,97669.50
2023-02-23T00:06:42.597Z,97668.03
2023-02-23T00:09:22.921Z,97663.88
2023-02-23T00:11:53.261Z,97667.19
2023-02-23T00:14:20.300Z,97640.94
2023-02-23T00:16:46.806Z,97658.03
2023-02-23T00:19:16.186Z,97653.94
2023-02-23T00:21:43.379Z,97663.31
2023-02-23T00:24:14.738Z,97660.66
2023-02-23T00:26:45.504Z,97660.19
2023-02-23T00:29:23.544Z,97655.63
2023-02-23T00:31:51.741Z,97659.72
2023-02-23T00:34:23.826Z,97658.25
2023-02-23T00:36:54.277Z,97655.78
2023-02-23T00:39:23.167Z,97650.97
2023-02-23T00:41:52.372Z,97655.25
2023-02-23T00:44:21.255Z,97651.09
2023-02-23T00:46:51.075Z,97650.75
2023-02-23T00:49:19.442Z,97645.28
2023-02-23T00:51:46.904Z,97646.59
2023-02-23T00:54:14.566Z,97632.56
2023-02-23T00:56:42.420Z,97630.50
2023-02-23T00:59:12.063Z,97646.84
2023-02-23T01:01:39.440Z,97647.47
2023-02-23T01:04:07.350Z,97642.38
2023-02-23T01:06:37.294Z,97635.78
2023-02-23T01:09:08.888Z,97640.72
2023-02-23T01:11:35.518Z,97634.94
2023-02-23T01:14:02.439Z,97647.13
2023-02-23T01:16:32.394Z,97628.97
2023-02-23T01:19:01.350Z,97633.41
2023-02-23T01:21:37.352Z,97646.72
2023-02-23T01:24:04.702Z,97643.75
2023-02-23T01:26:34.289Z,97631.81
2023-02-23T01:29:09.590Z,97635.66
2023-02-23T01:31:38.873Z,97635.66
2023-02-23T01:34:06.535Z,97628.03
2023-02-23T01:36:36.490Z,97626.56
2023-02-23T01:39:06.341Z,97636.63
2023-02-23T01:41:34.326Z,97635.13
2023-02-23T01:44:06.969Z,97631.16
2023-02-23T01:46:39.258Z,97628.56
2023-02-23T01:49:10.519Z,97628.03
2023-02-23T01:51:45.114Z,97619.81
2023-02-23T01:54:16.267Z,97632.00
2023-02-23T01:56:58.044Z,97622.59
2023-02-23T01:59:30.247Z,97618.47
2023-02-23T02:01:57.029Z,97610.22
2023-02-23T02:04:25.358Z,97616.97
2023-02-23T02:06:55.411Z,97621.28
2023-02-23T02:09:28.106Z,97617.50
2023-02-23T02:11:54.635Z,97601.16
2023-02-23T02:14:29.478Z,97604.09
2023-02-23T02:17:02.409Z,97606.72
2023-02-23T02:19:59.212Z,97608.88
2023-02-23T02:22:48.861Z,97607.88
2023-02-23T02:25:41.078Z,97607.53
2023-02-23T02:28:22.298Z,97599.59
2023-02-23T02:31:26.333Z,97598.94
2023-02-23T02:34:06.785Z,97602.59
2023-02-23T02:37:03.223Z,97585.56
2023-02-23T02:39:45.168Z,97580.97
2023-02-23T02:42:19.177Z,97592.03
2023-02-23T02:44:54.806Z,97578.84
2023-02-23T02:48:06.644Z,97584.25
2023-02-23T02:50:40.362Z,97579.16
2023-02-23T02:53:12.112Z,97581.47
2023-02-23T02:55:43.792Z,97573.53
2023-02-23T02:58:12.541Z,97568.56
2023-02-23T03:01:00.624Z,97574.97
2023-02-23T03:04:06.791Z,97571.50
2023-02-23T03:06:56.119Z,97570.41
2023-02-23T03:10:02.190Z,97560.31
2023-02-23T03:12:56.574Z,97562.78
2023-02-23T03:16:38.792Z,97562.94
2023-02-23T03:19:53.090Z,97551.72
2023-02-23T03:22:49.653Z,97556.38
2023-02-23T03:25:50.427Z,97551.63
2023-02-23T03:28:41.080Z,97557.75
2023-02-23T03:31:34.234Z,97552.63
2023-02-23T03:34:57.988Z,97558.75
2023-02-23T03:37:52.417Z,97553.19
2023-02-23T03:40:40.548Z,97549.59
2023-02-23T03:43:32.151Z,97550.56
2023-02-23T03:46:23.034Z,97541.34
2023-02-23T03:49:09.858Z,97541.88
2023-02-23T03:51:58.012Z,97550.13
2023-02-23T03:54:48.898Z,97545.00
2023-02-23T03:57:36.972Z,97534.59
2023-02-23T04:00:26.856Z,97544.03
2023-02-23T04:03:13.616Z,97537.28
2023-02-23T04:06:00.466Z,97547.19
2023-02-23T04:08:55.536Z,97547.00
2023-02-23T04:11:49.917Z,97545.84
2023-02-23T04:14:26.830Z,97559.75
2023-02-23T04:16:57.389Z,97561.22
2023-02-23T04:19:28.300Z,97561.41
2023-02-23T04:21:55.062Z,97546.34
2023-02-23T04:24:24.379Z,97553.63
2023-02-23T04:26:52.045Z,97547.66
2023-02-23T04:29:19.120Z,97537.28
2023-02-23T04:31:46.116Z,97544.19
2023-02-23T04:34:12.762Z,97537.09
2023-02-23T04:36:39.505Z,97540.06
2023-02-23T04:39:06.176Z,97544.38
2023-02-23T04:41:32.729Z,97548.19
2023-02-23T04:43:59.203Z,97547.38
2023-02-23T04:46:25.955Z,97528.19
2023-02-23T04:48:54.550Z,97539.09
2023-02-23T04:51:21.146Z,97541.06
2023-02-23T04:53:47.758Z,97539.41
2023-02-23T04:56:14.656Z,97545.56
2023-02-23T04:58:41.905Z,97525.91
2023-02-23T05:01:09.855Z,97538.44
2023-02-23T05:03:36.603Z,97535.00
2023-02-23T05:06:03.202Z,97533.00
2023-02-23T05:08:30.148Z,97531.03
2023-02-23T05:10:56.654Z,97531.03
2023-02-23T05:13:26.574Z,97542.78
2023-02-23T05:15:57.922Z,97543.41
2023-02-23T05:18:28.058Z,97541.44
2023-02-23T05:21:02.265Z,97546.56
2023-02-23T05:23:28.783Z,97530.19
2023-02-23T05:26:00.002Z,97529.69
2023-02-23T05:28:29.290Z,97510.88
2023-02-23T05:30:56.776Z,97532.34
2023-02-23T05:33:23.314Z,97524.94
2023-02-23T05:35:49.815Z,97526.88
2023-02-23T05:38:16.488Z,97518.97
2023-02-23T05:40:43.005Z,97505.09
2023-02-23T05:43:09.524Z,97507.47
2023-02-23T05:45:41.413Z,97502.19
2023-02-23T05:48:09.747Z,97515.53
2023-02-23T05:50:36.284Z,97512.41
2023-02-23T05:53:03.095Z,97509.44
2023-02-23T05:55:29.834Z,97501.03
2023-02-23T05:57:59.160Z,97499.34
2023-02-23T06:00:27.818Z,97500.50
2023-02-23T06:02:57.238Z,97481.91
2023-02-23T06:05:23.776Z,97472.19
2023-02-23T06:07:50.480Z,97484.41
2023-02-23T06:10:17.519Z,97494.31
2023-02-23T06:12:45.100Z,97486.06
2023-02-23T06:15:12.105Z,97500.88
2023-02-23T06:17:38.598Z,97505.84
2023-02-23T06:20:07.121Z,97496.06
2023-02-23T06:22:33.735Z,97487.38
2023-02-23T06:25:00.255Z,97493.28
2023-02-23T06:27:29.837Z,97492.13
2023-02-23T06:29:57.483Z,97500.53
2023-02-23T06:32:24.014Z,97499.56
2023-02-23T06:34:50.544Z,97490.00
2023-02-23T06:37:17.033Z,97499.75
2023-02-23T06:39:43.576Z,97494.13
2023-02-23T06:42:10.063Z,97500.88
2023-02-23T06:44:37.241Z,97502.19
2023-02-23T06:47:06.165Z,97509.81
2023-02-23T06:49:32.800Z,97517.06
2023-02-23T06:51:59.605Z,97509.28
2023-02-23T06:54:29.181Z,97495.94
2023-02-23T06:56:57.593Z,97498.03
2023-02-23T06:59:26.762Z,97499.69
2023-02-23T07:01:53.354Z,97497.06
2023-02-23T07:04:19.901Z,97503.00
2023-02-23T07:06:46.433Z,97511.91
2023-02-23T07:09:12.916Z,97500.53
2023-02-23T07:11:41.142Z,97504.28
2023-02-23T07:14:21.426Z,97517.97
2023-02-23T07:16:53.154Z,97497.38
2023-02-23T07:19:19.690Z,97522.28
2023-02-23T07:21:46.200Z,97521.78
2023-02-23T07:24:12.991Z,97523.09
2023-02-23T07:26:41.008Z,97513.38
2023-02-23T07:29:07.573Z,97518.13
2023-02-23T07:31:34.194Z,97522.78
2023-02-23T07:34:00.732Z,97526.56
2023-02-23T07:36:27.744Z,97525.19
2023-02-23T07:38:54.345Z,97525.34
2023-02-23T07:41:22.195Z,97511.84
2023-02-23T07:43:48.977Z,97516.09
2023-02-23T07:46:16.382Z,97507.69
2023-02-23T07:48:45.081Z,97511.81
2023-02-23T07:51:13.366Z,97519.03
2023-02-23T07:53:40.329Z,97511.59
2023-02-23T07:56:08.733Z,97501.75
2023-02-23T07:58:35.303Z,97516.81
2023-02-23T08:01:02.348Z,97519.19
2023-02-23T08:03:28.954Z,97519.81
2023-02-23T08:05:56.832Z,97517.00
2023-02-23T08:08:23.537Z,97524.59
2023-02-23T08:10:50.158Z,97508.94
2023-02-23T08:13:17.215Z,97515.13
2023-02-23T08:15:44.190Z,97520.44
2023-02-23T08:18:11.431Z,97515.97
2023-02-23T08:20:38.216Z,97512.47
2023-02-23T08:23:04.914Z,97494.94
2023-02-23T08:25:31.665Z,97516.50
2023-02-23T08:27:59.654Z,97506.38
2023-02-23T08:30:30.188Z,97503.97
2023-02-23T08:33:01.564Z,97489.69
2023-02-23T08:35:31.062Z,97479.75
2023-02-23T08:37:58.458Z,97487.50
2023-02-23T08:40:27.406Z,97497.00
2023-02-23T08:42:53.887Z,97497.56
2023-02-23T08:45:20.738Z,97500.19
2023-02-23T08:47:47.223Z,97494.28
2023-02-23T08:50:14.410Z,97498.56
2023-02-23T08:52:41.089Z,97497.81
2023-02-23T08:55:08.047Z,97499.34
2023-02-23T08:57:35.874Z,97506.66
2023-02-23T09:00:02.910Z,97506.16
2023-02-23T09:02:29.487Z,97500.56
2023-02-23T09:04:59.597Z,97510.44
2023-02-23T09:07:30.648Z,97515.63
2023-02-23T09:10:00.172Z,97514.69
2023-02-23T09:12:29.603Z,97506.69
2023-02-23T09:14:57.947Z,97512.75
2023-02-23T09:17:30.422Z,97508.28
2023-02-23T09:19:56.954Z,97511.81
2023-02-23T09:22:23.501Z,97513.16
2023-02-23T09:24:50.041Z,97506.16
2023-02-23T09:27:16.634Z,97510.56
2023-02-23T09:29:43.928Z,97495.03
2023-02-23T09:32:11.903Z,97501.25
2023-02-23T09:34:38.518Z,97503.34
2023-02-23T09:37:05.496Z,97487.72
2023-02-23T09:39:38.514Z,97513.16
2023-02-23T09:42:15.687Z,97503.84
2023-02-23T09:44:51.981Z,97504.84
2023-02-23T09:47:51.686Z,97496.56
2023-02-23T09:50:27.775Z,97486.19
2023-02-23T09:53:10.578Z,97490.09
2023-02-23T09:55:40.919Z,97486.16
2023-02-23T09:58:27.848Z,97488.88
2023-02-23T10:01:09.904Z,97482.41
2023-02-23T10:03:40.351Z,97482.53
2023-02-23T10:06:11.306Z,97481.78
2023-02-23T10:08:51.146Z,97488.16
2023-02-23T10:12:05.734Z,97482.50
2023-02-23T10:14:35.219Z,97482.59
2023-02-23T10:17:26.923Z,97472.44
2023-02-23T10:20:05.450Z,97468.03
2023-02-23T10:22:35.542Z,97467.41
2023-02-23T10:25:06.713Z,97462.91
2023-02-23T10:27:41.913Z,97464.53
2023-02-23T10:30:29.299Z,97465.84
2023-02-23T10:33:22.522Z,97464.53
2023-02-23T10:35:52.401Z,97455.34
2023-02-23T10:38:20.523Z,97477.31
2023-02-23T10:40:53.604Z,97454.91
2023-02-23T10:43:20.161Z,97468.03
2023-02-23T10:45:49.091Z,97464.88
2023-02-23T10:48:39.982Z,97459.69
2023-02-23T10:51:14.410Z,97441.78
2023-02-23T10:53:40.903Z,97446.44
2023-02-23T10:56:17.196Z,97441.88
2023-02-23T10:58:47.047Z,97432.16
2023-02-23T11:01:16.074Z,97441.31
2023-02-23T11:04:05.442Z,97426.22
2023-02-23T11:06:42.290Z,97439.03
2023-02-23T11:09:45.009Z,97430.97
2023-02-23T11:12:23.050Z,97413.06
2023-02-23T11:14:54.369Z,97422.56
2023-02-23T11:17:33.961Z,97411.50
2023-02-23T11:20:23.078Z,97416.56
2023-02-23T11:22:52.299Z,97404.03
2023-02-23T11:25:30.427Z,97394.69
2023-02-23T11:27:58.897Z,97400.56
2023-02-23T11:30:37.152Z,97402.00
2023-02-23T11:33:12.013Z,97392.47
2023-02-23T11:35:39.035Z,97391.91
2023-02-23T11:38:22.230Z,97391.41
2023-02-23T11:41:00.597Z,97379.56
2023-02-23T11:43:30.047Z,97363.13
2023-02-23T11:46:00.972Z,97369.13
2023-02-23T11:48:36.649Z,97365.44
2023-02-23T11:51:03.441Z,97364.94
2023-02-23T11:53:44.581Z,97360.22
2023-02-23T11:56:12.597Z,97349.06
2023-02-23T11:58:49.884Z,97347.94
2023-02-23T12:01:23.508Z,97338.97
2023-02-23T12:03:57.123Z,97342.72
2023-02-23T12:06:35.984Z,97333.06
2023-02-23T12:09:18.584Z,97320.03
2023-02-23T12:11:51.960Z,97319.56
2023-02-23T12:14:54.693Z,97323.78
2023-02-23T12:17:29.832Z,97327.16
2023-02-23T12:20:43.717Z,97322.72
2023-02-23T12:23:17.052Z,97320.19
2023-02-23T12:26:01.559Z,97315.34
2023-02-23T12:28:51.764Z,97315.75
2023-02-23T12:31:42.388Z,97309.16
2023-02-23T12:34:21.313Z,97298.56
2023-02-23T12:36:58.359Z,97297.06
2023-02-23T12:39:38.952Z,97292.91
2023-02-23T12:42:43.046Z,97295.94
2023-02-23T12:45:28.121Z,97299.91
2023-02-23T12:48:06.219Z,97297.94
2023-02-23T12:50:40.737Z,97283.41
2023-02-23T12:53:12.626Z,97284.34
2023-02-23T12:55:59.788Z,97296.91
2023-02-23T12:58:30.098Z,97284.13
2023-02-23T13:01:04.948Z,97301.38
2023-02-23T13:03:58.611Z,97306.84
2023-02-23T13:06:59.546Z,97292.38
2023-02-23T13:09:47.650Z,97297.66
2023-02-23T13:12:33.029Z,97300.00
2023-02-23T13:15:11.663Z,97295.91
2023-02-23T13:17:49.616Z,97300.03
2023-02-23T13:20:38.947Z,97291.25
2023-02-23T13:23:09.598Z,97281.34
2023-02-23T13:25:51.255Z,97281.44
2023-02-23T13:28:42.571Z,97270.00
2023-02-23T13:31:29.441Z,97265.88
2023-02-23T13:33:59.682Z,97272.22
2023-02-23T13:36:32.235Z,97255.97
2023-02-23T13:39:28.515Z,97261.13
2023-02-23T13:42:36.786Z,97267.47
2023-02-23T13:45:31.572Z,97266.16
2023-02-23T13:48:18.765Z,97256.63
2023-02-23T13:50:51.549Z,97258.56
2023-02-23T13:53:38.342Z,97255.19
2023-02-23T13:56:08.847Z,97257.41
2023-02-23T13:58:35.776Z,97234.69
2023-02-23T14:01:10.490Z,97248.44
2023-02-23T14:03:43.641Z,97249.34
2023-02-23T14:06:14.757Z,97250.41
2023-02-23T14:08:45.057Z,97228.69
2023-02-23T14:11:30.154Z,97248.19
2023-02-23T14:14:04.153Z,97248.19
2023-02-23T14:16:31.871Z,97253.06
2023-02-23T14:19:04.539Z,97247.72
2023-02-23T14:21:43.005Z,97245.34
2023-02-23T14:24:25.708Z,97253.94
2023-02-23T14:27:06.546Z,97250.53
2023-02-23T14:30:05.586Z,97252.69
2023-02-23T14:32:39.289Z,97254.47
2023-02-23T14:35:19.247Z,97250.13
2023-02-23T14:37:56.408Z,97258.59
2023-02-23T14:40:30.655Z,97257.66
2023-02-23T14:42:59.146Z,97262.63
2023-02-23T14:45:28.791Z,97261.41
2023-02-23T14:48:02.948Z,97249.28
2023-02-23T14:50:42.057Z,97255.19
2023-02-23T14:53:19.700Z,97234.22
2023-02-23T14:55:49.790Z,97246.53
2023-02-23T14:58:26.358Z,97248.84
2023-02-23T15:00:52.853Z,97251.31
2023-02-23T15:03:19.544Z,97242.91
2023-02-23T15:05:52.718Z,97217.91
2023-02-23T15:08:23.206Z,97249.59
2023-02-23T15:11:01.599Z,97233.28
2023-02-23T15:13:39.768Z,97251.72
2023-02-23T15:16:32.272Z,97239.69
2023-02-23T15:19:02.892Z,97243.38
2023-02-23T15:21:34.586Z,97234.00
2023-02-23T15:24:11.100Z,97243.84
2023-02-23T15:26:40.214Z,97251.22
2023-02-23T15:29:25.670Z,97247.50
2023-02-23T15:31:55.323Z,97246.28
2023-02-23T15:34:26.890Z,97253.50
2023-02-23T15:36:59.676Z,97246.31
2023-02-23T15:39:42.983Z,97253.28
2023-02-23T15:42:18.839Z,97254.34
2023-02-23T15:44:45.894Z,97225.69
2023-02-23T15:47:28.442Z,97259.06
2023-02-23T15:50:18.120Z,97245.16
2023-02-23T15:52:51.375Z,97245.31
2023-02-23T15:55:24.388Z,97246.75
2023-02-23T15:57:58.922Z,97253.47
2023-02-23T16:00:36.590Z,97238.94
2023-02-23T16:03:08.021Z,97216.84
2023-02-23T16:05:46.594Z,97242.59
2023-02-23T16:08:23.730Z,97229.09
2023-02-23T16:10:57.470Z,97241.16
2023-02-23T16:13:24.208Z,97217.63
2023-02-23T16:15:54.161Z,97217.00
2023-02-23T16:18:28.940Z,97233.78
2023-02-23T16:20:59.620Z,97218.41
2023-02-23T16:23:36.091Z,97226.19
2023-02-23T16:26:15.982Z,97236.59
2023-02-23T16:28:45.939Z,97233.09
2023-02-23T16:31:14.108Z,97224.56
2023-02-23T16:33:42.015Z,97228.88
2023-02-23T16:36:20.363Z,97233.78
2023-02-23T16:38:52.853Z,97231.50
2023-02-23T16:41:22.028Z,97235.63
2023-02-23T16:43:50.148Z,97227.22
2023-02-23T16:46:18.365Z,97228.44
2023-02-23T16:48:45.336Z,97229.03
2023-02-23T16:51:17.402Z,97227.81
2023-02-23T16:53:44.514Z,97202.00
2023-02-23T16:56:22.024Z,97221.66
2023-02-23T16:58:58.074Z,97229.03
2023-02-23T17:01:24.784Z,97222.03
2023-02-23T17:03:53.898Z,97225.56
2023-02-23T17:06:22.552Z,97227.84
2023-02-23T17:08:57.600Z,97220.53
2023-02-23T17:11:25.172Z,97228.72
2023-02-23T17:13:51.620Z,97232.44
2023-02-23T17:16:18.498Z,97212.00
2023-02-23T17:18:45.283Z,97232.66
2023-02-23T17:21:14.296Z,97233.28
2023-02-23T17:23:51.209Z,97241.66
2023-02-23T17:26:22.461Z,97222.38
2023-02-23T17:28:52.173Z,97240.19
2023-02-23T17:31:23.549Z,97234.22
2023-02-23T17:33:52.623Z,97217.63
2023-02-23T17:36:20.122Z,97250.94
2023-02-23T17:38:46.660Z,97234.34
2023-02-23T17:41:16.605Z,97259.88
2023-02-23T17:43:43.408Z,97257.63
2023-02-23T17:46:29.317Z,97258.84
2023-02-23T17:48:56.487Z,97262.09
2023-02-23T17:51:23.336Z,97262.25
2023-02-23T17:53:53.191Z,97262.75
2023-02-23T17:56:23.797Z,97248.09
2023-02-23T17:58:50.521Z,97252.69
2023-02-23T18:01:17.935Z,97256.38
2023-02-23T18:03:49.836Z,97276.69
2023-02-23T18:06:16.970Z,97282.94
2023-02-23T18:08:47.580Z,97268.09
2023-02-23T18:11:16.420Z,97277.06
2023-02-23T18:13:42.926Z,97280.75
2023-02-23T18:16:10.730Z,97264.72
2023-02-23T18:18:43.676Z,97279.28
2023-02-23T18:21:22.018Z,97302.59
2023-02-23T18:23:49.916Z,97299.03
2023-02-23T18:26:22.551Z,97308.22
2023-02-23T18:28:51.105Z,97299.38
2023-02-23T18:31:21.565Z,97307.72
2023-02-23T18:33:56.509Z,97300.19
2023-02-23T18:36:29.818Z,97311.47
2023-02-23T18:38:58.168Z,97303.94
2023-02-23T18:41:30.989Z,97314.00
2023-02-23T18:43:59.700Z,97288.06
2023-02-23T18:46:26.642Z,97303.41
2023-02-23T18:48:54.769Z,97297.25
2023-02-23T18:51:22.846Z,97317.06
2023-02-23T18:53:51.949Z,97288.53
2023-02-23T18:56:25.190Z,97312.53
2023-02-23T18:58:58.162Z,97315.75
2023-02-23T19:01:28.099Z,97315.75
2023-02-23T19:03:57.842Z,97317.19
2023-02-23T19:06:25.709Z,97311.84
2023-02-23T19:08:55.908Z,97305.88
2023-02-23T19:11:25.669Z,97302.31
2023-02-23T19:13:53.749Z,97318.47
2023-02-23T19:16:21.306Z,97309.41
2023-02-23T19:18:50.733Z,97314.56
2023-02-23T19:21:22.662Z,97304.53
2023-02-23T19:23:50.753Z,97313.06
2023-02-23T19:26:18.486Z,97311.03
2023-02-23T19:28:48.594Z,97292.50
2023-02-23T19:31:20.755Z,97282.34
2023-02-23T19:33:49.758Z,97303.44
2023-02-23T19:36:19.603Z,97312.22
2023-02-23T19:38:46.165Z,97305.75
2023-02-23T19:41:18.428Z,97305.03
2023-02-23T19:43:45.963Z,97302.41
2023-02-23T19:46:16.301Z,97312.91
2023-02-23T19:48:45.656Z,97306.94
2023-02-23T19:51:14.852Z,97297.66
2023-02-23T19:53:44.637Z,97310.06
2023-02-23T19:56:13.412Z,97311.63
2023-02-23T19:58:46.620Z,97321.75
2023-02-23T20:01:16.645Z,97303.31
2023-02-23T20:03:45.128Z,97321.31
2023-02-23T20:06:16.314Z,97313.53
2023-02-23T20:08:44.638Z,97306.13
2023-02-23T20:11:15.520Z,97314.53
2023-02-23T20:13:42.313Z,97313.78
2023-02-23T20:16:14.268Z,97315.78
2023-02-23T20:18:41.677Z,97325.91
2023-02-23T20:21:12.429Z,97321.09
2023-02-23T20:23:41.636Z,97315.66
2023-02-23T20:26:15.829Z,97315.81
2023-02-23T20:28:42.893Z,97337.69
2023-02-23T20:31:18.092Z,97335.19
2023-02-23T20:33:44.797Z,97322.63
2023-02-23T20:36:14.493Z,97309.31
2023-02-23T20:38:43.932Z,97299.81
2023-02-23T20:41:13.476Z,97331.88
2023-02-23T20:43:44.048Z,97328.59
2023-02-23T20:46:15.609Z,97327.78
2023-02-23T20:48:42.746Z,97337.16
2023-02-23T20:51:14.950Z,97325.00
2023-02-23T20:53:47.124Z,97345.16
2023-02-23T20:56:16.615Z,97341.25
2023-02-23T20:58:43.893Z,97335.69
2023-02-23T21:01:21.382Z,97346.53
2023-02-23T21:03:52.450Z,97344.09
2023-02-23T21:06:20.707Z,97311.56
2023-02-23T21:08:50.286Z,97337.06
2023-02-23T21:11:19.780Z,97340.31
2023-02-23T21:13:46.707Z,97316.31
2023-02-23T21:16:15.625Z,97339.63
2023-02-23T21:18:42.713Z,97342.63
2023-02-23T21:21:11.689Z,97303.00
2023-02-23T21:23:41.055Z,97338.13
2023-02-23T21:26:07.606Z,97340.44
2023-02-23T21:28:35.462Z,97333.16
2023-02-23T21:31:02.205Z,97331.13
2023-02-23T21:33:28.762Z,97331.13
2023-02-23T21:35:58.700Z,97324.69
2023-02-23T21:38:25.674Z,97316.91
2023-02-23T21:40:55.395Z,97335.16
2023-02-23T21:43:23.064Z,97321.75
2023-02-23T21:45:49.604Z,97332.41
2023-02-23T21:48:16.177Z,97333.69
2023-02-23T21:50:45.335Z,97324.31
2023-02-23T21:53:16.162Z,97327.41
2023-02-23T21:55:45.535Z,97331.72
2023-02-23T21:58:15.292Z,97308.78
2023-02-23T22:00:44.556Z,97327.66
2023-02-23T22:03:13.878Z,97322.81
2023-02-23T22:05:40.395Z,97328.22
2023-02-23T22:08:06.957Z,97324.31
2023-02-23T22:10:33.608Z,97320.66
2023-02-23T22:13:01.033Z,97320.09
2023-02-23T22:15:27.914Z,97332.41
2023-02-23T22:17:55.512Z,97313.97
2023-02-23T22:20:22.405Z,97330.13
2023-02-23T22:22:50.472Z,97322.38
2023-02-23T22:25:19.697Z,97325.00
2023-02-23T22:27:46.656Z,97325.28
2023-02-23T22:30:15.765Z,97325.00
2023-02-23T22:32:45.233Z,97320.53
2023-02-23T22:35:11.811Z,97320.22
2023-02-23T22:37:39.224Z,97316.06
2023-02-23T22:40:18.842Z,97292.31
2023-02-23T22:42:49.284Z,97297.16
2023-02-23T22:45:16.771Z,97325.22
2023-02-23T22:47:45.676Z,97323.72
2023-02-23T22:50:16.321Z,97327.22
2023-02-23T22:52:43.097Z,97313.41
2023-02-23T22:55:09.959Z,97325.84
2023-02-23T22:57:36.642Z,97298.44
2023-02-23T23:00:07.111Z,97318.97
2023-02-23T23:02:33.635Z,97307.38
2023-02-23T23:05:01.785Z,97319.25
2023-02-23T23:07:29.111Z,97311.13
2023-02-23T23:09:55.644Z,97302.34
2023-02-23T23:12:22.242Z,97314.59
2023-02-23T23:14:48.774Z,97286.22
2023-02-23T23:17:18.103Z,97288.84
2023-02-23T23:19:45.010Z,97291.50
2023-02-23T23:22:14.501Z,97284.84
2023-02-23T23:24:48.073Z,97291.13
2023-02-23T23:27:14.727Z,97301.19
2023-02-23T23:29:45.651Z,97292.78
2023-02-23T23:32:27.499Z,97287.41
2023-02-23T23:34:57.276Z,97286.50
2023-02-23T23:37:23.818Z,97292.47
2023-02-23T23:39:59.200Z,97289.00
2023-02-23T23:42:26.575Z,97292.69
2023-02-23T23:44:56.534Z,97293.78
2023-02-23T23:47:23.232Z,97290.38
2023-02-23T23:49:49.993Z,97245.28
2023-02-23T23:52:21.288Z,97267.84
2023-02-23T23:54:52.696Z,97280.00
2023-02-23T23:57:21.190Z,97274.53
2023-02-23T23:59:51.583Z,97277.00
